sensor_id;sensor_type;location;lat;lon;timestamp;P1;durP1;ratioP1;P2;durP2;ratioP2
59189;SDS011;50749;51.636;4.948;2022-12-24T00:01:22;6.72;;;2.53;;
59189;SDS011;50749;51.636;4.948;2022-12-24T00:03:48;11.95;;;2.88;;
59189;SDS011;50749;51.636;4.948;2022-12-24T00:06:15;9.63;;;1.90;;
59189;SDS011;50749;51.636;4.948;2022-12-24T00:08:42;9.70;;;3.05;;
59189;SDS011;50749;51.636;4.948;2022-12-24T00:11:08;11.07;;;2.55;;
59189;SDS011;50749;51.636;4.948;2022-12-24T00:13:34;11.20;;;3.25;;
59189;SDS011;50749;51.636;4.948;2022-12-24T00:16:00;12.98;;;2.42;;
59189;SDS011;50749;51.636;4.948;2022-12-24T00:18:26;10.23;;;1.75;;
59189;SDS011;50749;51.636;4.948;2022-12-24T00:20:52;12.23;;;2.10;;
59189;SDS011;50749;51.636;4.948;2022-12-24T00:23:18;14.73;;;2.15;;
59189;SDS011;50749;51.636;4.948;2022-12-24T00:25:45;11.40;;;2.42;;
59189;SDS011;50749;51.636;4.948;2022-12-24T00:28:12;9.93;;;2.53;;
59189;SDS011;50749;51.636;4.948;2022-12-24T00:30:39;12.15;;;1.95;;
59189;SDS011;50749;51.636;4.948;2022-12-24T00:33:05;12.45;;;2.78;;
59189;SDS011;50749;51.636;4.948;2022-12-24T00:35:35;8.10;;;2.10;;
59189;SDS011;50749;51.636;4.948;2022-12-24T00:38:02;9.95;;;1.85;;
59189;SDS011;50749;51.636;4.948;2022-12-24T00:40:29;9.85;;;2.25;;
59189;SDS011;50749;51.636;4.948;2022-12-24T00:42:55;10.75;;;2.40;;
59189;SDS011;50749;51.636;4.948;2022-12-24T00:45:21;10.25;;;2.17;;
59189;SDS011;50749;51.636;4.948;2022-12-24T00:47:47;7.57;;;2.60;;
59189;SDS011;50749;51.636;4.948;2022-12-24T00:50:13;8.82;;;2.75;;
59189;SDS011;50749;51.636;4.948;2022-12-24T00:52:39;9.82;;;2.08;;
59189;SDS011;50749;51.636;4.948;2022-12-24T00:55:06;10.68;;;2.17;;
59189;SDS011;50749;51.636;4.948;2022-12-24T00:57:32;6.93;;;1.75;;
59189;SDS011;50749;51.636;4.948;2022-12-24T00:59:58;5.80;;;2.25;;
59189;SDS011;50749;51.636;4.948;2022-12-24T01:02:24;10.73;;;1.98;;
59189;SDS011;50749;51.636;4.948;2022-12-24T01:04:50;12.57;;;2.50;;
59189;SDS011;50749;51.636;4.948;2022-12-24T01:07:34;9.18;;;1.95;;
59189;SDS011;50749;51.636;4.948;2022-12-24T01:10:01;8.15;;;2.13;;
59189;SDS011;50749;51.636;4.948;2022-12-24T01:12:28;10.00;;;1.83;;
59189;SDS011;50749;51.636;4.948;2022-12-24T01:14:54;8.60;;;2.00;;
59189;SDS011;50749;51.636;4.948;2022-12-24T01:17:20;8.82;;;2.25;;
59189;SDS011;50749;51.636;4.948;2022-12-24T01:19:46;8.98;;;1.92;;
59189;SDS011;50749;51.636;4.948;2022-12-24T01:22:11;8.27;;;2.10;;
59189;SDS011;50749;51.636;4.948;2022-12-24T01:24:39;10.10;;;2.15;;
59189;SDS011;50749;51.636;4.948;2022-12-24T01:27:05;8.88;;;2.13;;
59189;SDS011;50749;51.636;4.948;2022-12-24T01:29:31;12.73;;;2.65;;
59189;SDS011;50749;51.636;4.948;2022-12-24T01:31:57;10.15;;;2.13;;
59189;SDS011;50749;51.636;4.948;2022-12-24T01:34:23;7.78;;;2.35;;
59189;SDS011;50749;51.636;4.948;2022-12-24T01:36:49;10.45;;;2.20;;
59189;SDS011;50749;51.636;4.948;2022-12-24T01:39:15;7.93;;;1.95;;
59189;SDS011;50749;51.636;4.948;2022-12-24T01:41:40;11.48;;;2.17;;
59189;SDS011;50749;51.636;4.948;2022-12-24T01:44:27;11.93;;;2.35;;
59189;SDS011;50749;51.636;4.948;2022-12-24T01:49:38;10.57;;;2.08;;
59189;SDS011;50749;51.636;4.948;2022-12-24T01:57:39;8.73;;;2.72;;
59189;SDS011;50749;51.636;4.948;2022-12-24T02:00:10;10.30;;;1.95;;
59189;SDS011;50749;51.636;4.948;2022-12-24T02:02:39;12.40;;;1.92;;
59189;SDS011;50749;51.636;4.948;2022-12-24T02:05:26;9.15;;;1.95;;
59189;SDS011;50749;51.636;4.948;2022-12-24T02:07:55;15.32;;;2.17;;
59189;SDS011;50749;51.636;4.948;2022-12-24T02:10:25;9.40;;;1.67;;
59189;SDS011;50749;51.636;4.948;2022-12-24T02:12:51;12.10;;;2.40;;
59189;SDS011;50749;51.636;4.948;2022-12-24T02:15:17;11.43;;;2.50;;
59189;SDS011;50749;51.636;4.948;2022-12-24T02:17:59;9.00;;;2.08;;
59189;SDS011;50749;51.636;4.948;2022-12-24T02:23:56;11.38;;;2.25;;
59189;SDS011;50749;51.636;4.948;2022-12-24T02:36:05;10.23;;;1.92;;
59189;SDS011;50749;51.636;4.948;2022-12-24T02:41:12;9.50;;;1.92;;
59189;SDS011;50749;51.636;4.948;2022-12-24T02:43:51;12.93;;;2.05;;
59189;SDS011;50749;51.636;4.948;2022-12-24T02:46:26;9.02;;;2.25;;
59189;SDS011;50749;51.636;4.948;2022-12-24T02:48:54;10.35;;;2.78;;
59189;SDS011;50749;51.636;4.948;2022-12-24T02:51:23;9.95;;;1.95;;
59189;SDS011;50749;51.636;4.948;2022-12-24T02:53:50;7.68;;;2.22;;
59189;SDS011;50749;51.636;4.948;2022-12-24T02:57:02;6.28;;;1.75;;
59189;SDS011;50749;51.636;4.948;2022-12-24T02:59:13;5.20;;;1.70;;
59189;SDS011;50749;51.636;4.948;2022-12-24T03:07:11;9.60;;;2.03;;
59189;SDS011;50749;51.636;4.948;2022-12-24T03:09:59;9.75;;;2.33;;
59189;SDS011;50749;51.636;4.948;2022-12-24T03:12:30;8.50;;;1.90;;
59189;SDS011;50749;51.636;4.948;2022-12-24T03:17:31;7.07;;;1.65;;
59189;SDS011;50749;51.636;4.948;2022-12-24T03:20:02;8.80;;;2.03;;
59189;SDS011;50749;51.636;4.948;2022-12-24T03:22:30;12.35;;;2.30;;
59189;SDS011;50749;51.636;4.948;2022-12-24T03:24:59;9.75;;;1.98;;
59189;SDS011;50749;51.636;4.948;2022-12-24T03:27:29;11.48;;;2.13;;
59189;SDS011;50749;51.636;4.948;2022-12-24T03:29:57;9.23;;;1.83;;
59189;SDS011;50749;51.636;4.948;2022-12-24T03:32:24;9.75;;;1.90;;
59189;SDS011;50749;51.636;4.948;2022-12-24T03:34:52;10.88;;;1.85;;
59189;SDS011;50749;51.636;4.948;2022-12-24T03:37:18;6.30;;;1.60;;
59189;SDS011;50749;51.636;4.948;2022-12-24T03:39:44;10.13;;;2.40;;
59189;SDS011;50749;51.636;4.948;2022-12-24T03:42:10;11.23;;;2.28;;
59189;SDS011;50749;51.636;4.948;2022-12-24T03:44:36;6.70;;;1.67;;
59189;SDS011;50749;51.636;4.948;2022-12-24T03:47:01;8.52;;;2.05;;
59189;SDS011;50749;51.636;4.948;2022-12-24T03:49:27;7.38;;;1.73;;
59189;SDS011;50749;51.636;4.948;2022-12-24T03:51:53;7.15;;;1.75;;
59189;SDS011;50749;51.636;4.948;2022-12-24T03:54:19;12.43;;;3.20;;
59189;SDS011;50749;51.636;4.948;2022-12-24T03:56:45;11.55;;;2.22;;
59189;SDS011;50749;51.636;4.948;2022-12-24T03:59:11;9.85;;;2.13;;
59189;SDS011;50749;51.636;4.948;2022-12-24T04:01:36;5.90;;;1.77;;
59189;SDS011;50749;51.636;4.948;2022-12-24T04:04:02;7.82;;;1.85;;
59189;SDS011;50749;51.636;4.948;2022-12-24T04:06:28;7.53;;;2.10;;
59189;SDS011;50749;51.636;4.948;2022-12-24T04:08:54;8.23;;;2.20;;
59189;SDS011;50749;51.636;4.948;2022-12-24T04:11:20;9.02;;;2.10;;
59189;SDS011;50749;51.636;4.948;2022-12-24T04:13:46;8.80;;;2.28;;
59189;SDS011;50749;51.636;4.948;2022-12-24T04:16:14;9.07;;;2.15;;
59189;SDS011;50749;51.636;4.948;2022-12-24T04:18:41;9.10;;;2.05;;
59189;SDS011;50749;51.636;4.948;2022-12-24T04:21:07;7.63;;;1.60;;
59189;SDS011;50749;51.636;4.948;2022-12-24T04:23:34;8.43;;;1.80;;
59189;SDS011;50749;51.636;4.948;2022-12-24T04:26:02;9.88;;;2.33;;
59189;SDS011;50749;51.636;4.948;2022-12-24T04:28:30;8.25;;;2.15;;
59189;SDS011;50749;51.636;4.948;2022-12-24T04:30:57;13.50;;;3.13;;
59189;SDS011;50749;51.636;4.948;2022-12-24T04:33:27;6.82;;;1.92;;
59189;SDS011;50749;51.636;4.948;2022-12-24T04:35:53;9.85;;;2.13;;
59189;SDS011;50749;51.636;4.948;2022-12-24T04:38:21;6.95;;;1.50;;
59189;SDS011;50749;51.636;4.948;2022-12-24T04:40:47;10.38;;;2.38;;
59189;SDS011;50749;51.636;4.948;2022-12-24T04:43:13;8.48;;;1.95;;
59189;SDS011;50749;51.636;4.948;2022-12-24T04:45:39;10.38;;;2.22;;
59189;SDS011;50749;51.636;4.948;2022-12-24T04:48:05;9.23;;;2.25;;
59189;SDS011;50749;51.636;4.948;2022-12-24T04:50:31;12.93;;;3.70;;
59189;SDS011;50749;51.636;4.948;2022-12-24T04:52:57;8.32;;;2.33;;
59189;SDS011;50749;51.636;4.948;2022-12-24T04:55:23;10.20;;;1.95;;
59189;SDS011;50749;51.636;4.948;2022-12-24T04:57:49;6.22;;;1.70;;
59189;SDS011;50749;51.636;4.948;2022-12-24T05:00:14;7.78;;;2.38;;
59189;SDS011;50749;51.636;4.948;2022-12-24T05:02:40;9.88;;;2.70;;
59189;SDS011;50749;51.636;4.948;2022-12-24T05:05:07;7.70;;;1.80;;
59189;SDS011;50749;51.636;4.948;2022-12-24T05:07:33;7.80;;;1.80;;
59189;SDS011;50749;51.636;4.948;2022-12-24T05:09:59;9.85;;;2.00;;
59189;SDS011;50749;51.636;4.948;2022-12-24T05:12:25;10.80;;;2.55;;
59189;SDS011;50749;51.636;4.948;2022-12-24T05:14:50;12.07;;;2.15;;
59189;SDS011;50749;51.636;4.948;2022-12-24T05:17:16;6.97;;;1.52;;
59189;SDS011;50749;51.636;4.948;2022-12-24T05:19:42;8.77;;;2.05;;
59189;SDS011;50749;51.636;4.948;2022-12-24T05:22:08;10.65;;;2.13;;
59189;SDS011;50749;51.636;4.948;2022-12-24T05:24:53;13.17;;;2.57;;
59189;SDS011;50749;51.636;4.948;2022-12-24T05:27:37;10.02;;;2.35;;
59189;SDS011;50749;51.636;4.948;2022-12-24T05:30:02;6.90;;;2.25;;
59189;SDS011;50749;51.636;4.948;2022-12-24T05:32:29;13.00;;;2.10;;
59189;SDS011;50749;51.636;4.948;2022-12-24T05:34:54;13.05;;;3.30;;
59189;SDS011;50749;51.636;4.948;2022-12-24T05:37:20;11.50;;;2.75;;
59189;SDS011;50749;51.636;4.948;2022-12-24T05:39:46;10.35;;;2.35;;
59189;SDS011;50749;51.636;4.948;2022-12-24T05:42:12;8.40;;;2.33;;
59189;SDS011;50749;51.636;4.948;2022-12-24T05:44:38;9.57;;;1.83;;
59189;SDS011;50749;51.636;4.948;2022-12-24T05:47:04;5.93;;;1.95;;
59189;SDS011;50749;51.636;4.948;2022-12-24T05:49:29;10.63;;;2.00;;
59189;SDS011;50749;51.636;4.948;2022-12-24T05:51:56;8.27;;;2.00;;
59189;SDS011;50749;51.636;4.948;2022-12-24T05:54:22;8.25;;;1.60;;
59189;SDS011;50749;51.636;4.948;2022-12-24T05:56:48;8.45;;;2.20;;
59189;SDS011;50749;51.636;4.948;2022-12-24T05:59:13;7.57;;;1.83;;
59189;SDS011;50749;51.636;4.948;2022-12-24T06:01:39;11.73;;;2.40;;
59189;SDS011;50749;51.636;4.948;2022-12-24T06:04:09;10.18;;;2.33;;
59189;SDS011;50749;51.636;4.948;2022-12-24T06:06:35;6.55;;;1.60;;
59189;SDS011;50749;51.636;4.948;2022-12-24T06:09:01;9.43;;;2.13;;
59189;SDS011;50749;51.636;4.948;2022-12-24T06:11:27;6.90;;;1.70;;
59189;SDS011;50749;51.636;4.948;2022-12-24T06:13:54;7.55;;;2.20;;
59189;SDS011;50749;51.636;4.948;2022-12-24T06:16:21;5.35;;;1.40;;
59189;SDS011;50749;51.636;4.948;2022-12-24T06:18:48;8.27;;;1.90;;
59189;SDS011;50749;51.636;4.948;2022-12-24T06:21:15;7.90;;;1.95;;
59189;SDS011;50749;51.636;4.948;2022-12-24T06:23:41;9.32;;;2.00;;
59189;SDS011;50749;51.636;4.948;2022-12-24T06:26:10;7.10;;;1.60;;
59189;SDS011;50749;51.636;4.948;2022-12-24T06:28:41;9.68;;;1.83;;
59189;SDS011;50749;51.636;4.948;2022-12-24T06:31:10;6.18;;;1.65;;
59189;SDS011;50749;51.636;4.948;2022-12-24T06:33:38;5.95;;;1.60;;
59189;SDS011;50749;51.636;4.948;2022-12-24T06:36:07;4.22;;;1.20;;
59189;SDS011;50749;51.636;4.948;2022-12-24T06:38:34;6.75;;;1.45;;
59189;SDS011;50749;51.636;4.948;2022-12-24T06:41:03;6.50;;;1.65;;
59189;SDS011;50749;51.636;4.948;2022-12-24T06:43:30;5.85;;;1.33;;
59189;SDS011;50749;51.636;4.948;2022-12-24T06:45:59;7.80;;;1.45;;
59189;SDS011;50749;51.636;4.948;2022-12-24T06:48:26;4.38;;;1.15;;
59189;SDS011;50749;51.636;4.948;2022-12-24T06:50:52;4.88;;;1.67;;
59189;SDS011;50749;51.636;4.948;2022-12-24T06:53:18;7.13;;;1.65;;
59189;SDS011;50749;51.636;4.948;2022-12-24T06:55:44;3.47;;;1.17;;
59189;SDS011;50749;51.636;4.948;2022-12-24T06:58:09;7.25;;;1.65;;
59189;SDS011;50749;51.636;4.948;2022-12-24T07:00:36;6.88;;;1.73;;
59189;SDS011;50749;51.636;4.948;2022-12-24T07:03:02;5.03;;;1.70;;
59189;SDS011;50749;51.636;4.948;2022-12-24T07:05:28;6.00;;;1.83;;
59189;SDS011;50749;51.636;4.948;2022-12-24T07:07:54;6.60;;;2.35;;
59189;SDS011;50749;51.636;4.948;2022-12-24T07:10:20;6.85;;;1.52;;
59189;SDS011;50749;51.636;4.948;2022-12-24T07:12:46;8.50;;;1.77;;
59189;SDS011;50749;51.636;4.948;2022-12-24T07:15:14;8.85;;;1.75;;
59189;SDS011;50749;51.636;4.948;2022-12-24T07:17:40;7.65;;;1.92;;
59189;SDS011;50749;51.636;4.948;2022-12-24T07:20:07;9.63;;;1.83;;
59189;SDS011;50749;51.636;4.948;2022-12-24T07:22:36;7.90;;;1.98;;
59189;SDS011;50749;51.636;4.948;2022-12-24T07:25:02;14.18;;;2.22;;
59189;SDS011;50749;51.636;4.948;2022-12-24T07:27:27;8.88;;;2.22;;
59189;SDS011;50749;51.636;4.948;2022-12-24T07:29:55;6.00;;;1.80;;
59189;SDS011;50749;51.636;4.948;2022-12-24T07:32:21;8.18;;;1.42;;
59189;SDS011;50749;51.636;4.948;2022-12-24T07:34:47;7.03;;;1.58;;
59189;SDS011;50749;51.636;4.948;2022-12-24T07:37:12;12.10;;;1.70;;
59189;SDS011;50749;51.636;4.948;2022-12-24T07:39:38;6.15;;;1.83;;
59189;SDS011;50749;51.636;4.948;2022-12-24T07:42:04;5.32;;;1.30;;
59189;SDS011;50749;51.636;4.948;2022-12-24T07:44:32;7.05;;;1.80;;
59189;SDS011;50749;51.636;4.948;2022-12-24T07:46:58;7.85;;;1.92;;
59189;SDS011;50749;51.636;4.948;2022-12-24T07:49:24;6.75;;;1.80;;
59189;SDS011;50749;51.636;4.948;2022-12-24T07:51:50;6.60;;;2.00;;
59189;SDS011;50749;51.636;4.948;2022-12-24T07:54:16;6.55;;;1.50;;
59189;SDS011;50749;51.636;4.948;2022-12-24T07:56:42;9.88;;;1.95;;
59189;SDS011;50749;51.636;4.948;2022-12-24T07:59:09;6.18;;;1.90;;
59189;SDS011;50749;51.636;4.948;2022-12-24T08:01:37;7.63;;;1.83;;
59189;SDS011;50749;51.636;4.948;2022-12-24T08:04:04;6.50;;;1.65;;
59189;SDS011;50749;51.636;4.948;2022-12-24T08:06:29;7.07;;;1.95;;
59189;SDS011;50749;51.636;4.948;2022-12-24T08:08:55;8.38;;;1.65;;
59189;SDS011;50749;51.636;4.948;2022-12-24T08:11:21;4.80;;;1.70;;
59189;SDS011;50749;51.636;4.948;2022-12-24T08:13:47;9.77;;;2.47;;
59189;SDS011;50749;51.636;4.948;2022-12-24T08:16:13;11.25;;;2.42;;
59189;SDS011;50749;51.636;4.948;2022-12-24T08:18:39;8.55;;;1.90;;
59189;SDS011;50749;51.636;4.948;2022-12-24T08:21:08;8.35;;;1.45;;
59189;SDS011;50749;51.636;4.948;2022-12-24T08:23:35;7.22;;;1.55;;
59189;SDS011;50749;51.636;4.948;2022-12-24T08:26:01;7.53;;;1.95;;
59189;SDS011;50749;51.636;4.948;2022-12-24T08:28:27;8.35;;;2.35;;
59189;SDS011;50749;51.636;4.948;2022-12-24T08:30:53;7.25;;;1.77;;
59189;SDS011;50749;51.636;4.948;2022-12-24T08:33:19;5.25;;;1.45;;
59189;SDS011;50749;51.636;4.948;2022-12-24T08:35:47;9.45;;;2.05;;
59189;SDS011;50749;51.636;4.948;2022-12-24T08:38:14;8.27;;;1.92;;
59189;SDS011;50749;51.636;4.948;2022-12-24T08:40:41;9.77;;;1.88;;
59189;SDS011;50749;51.636;4.948;2022-12-24T08:43:07;6.88;;;1.73;;
59189;SDS011;50749;51.636;4.948;2022-12-24T08:45:33;7.85;;;2.00;;
59189;SDS011;50749;51.636;4.948;2022-12-24T08:47:59;5.82;;;1.75;;
59189;SDS011;50749;51.636;4.948;2022-12-24T08:50:24;5.22;;;1.67;;
59189;SDS011;50749;51.636;4.948;2022-12-24T08:52:51;12.52;;;3.00;;
59189;SDS011;50749;51.636;4.948;2022-12-24T08:55:16;10.52;;;2.50;;
59189;SDS011;50749;51.636;4.948;2022-12-24T08:57:42;8.63;;;2.25;;
59189;SDS011;50749;51.636;4.948;2022-12-24T09:00:08;8.50;;;2.28;;
59189;SDS011;50749;51.636;4.948;2022-12-24T09:02:36;5.68;;;1.80;;
59189;SDS011;50749;51.636;4.948;2022-12-24T09:05:02;7.43;;;2.30;;
59189;SDS011;50749;51.636;4.948;2022-12-24T09:07:28;11.25;;;2.33;;
59189;SDS011;50749;51.636;4.948;2022-12-24T09:09:54;9.75;;;1.98;;
59189;SDS011;50749;51.636;4.948;2022-12-24T09:12:20;10.65;;;1.77;;
59189;SDS011;50749;51.636;4.948;2022-12-24T09:14:46;10.32;;;1.85;;
59189;SDS011;50749;51.636;4.948;2022-12-24T09:17:12;6.78;;;1.70;;
59189;SDS011;50749;51.636;4.948;2022-12-24T09:19:37;11.10;;;2.20;;
59189;SDS011;50749;51.636;4.948;2022-12-24T09:22:03;6.43;;;1.90;;
59189;SDS011;50749;51.636;4.948;2022-12-24T09:24:29;8.20;;;1.88;;
59189;SDS011;50749;51.636;4.948;2022-12-24T09:26:55;9.25;;;2.30;;
59189;SDS011;50749;51.636;4.948;2022-12-24T09:29:22;11.65;;;1.80;;
59189;SDS011;50749;51.636;4.948;2022-12-24T09:31:48;7.80;;;1.73;;
59189;SDS011;50749;51.636;4.948;2022-12-24T09:34:14;8.77;;;1.77;;
59189;SDS011;50749;51.636;4.948;2022-12-24T09:36:40;6.47;;;1.50;;
59189;SDS011;50749;51.636;4.948;2022-12-24T09:39:05;6.55;;;2.03;;
59189;SDS011;50749;51.636;4.948;2022-12-24T09:44:37;11.25;;;2.35;;
59189;SDS011;50749;51.636;4.948;2022-12-24T09:50:08;6.60;;;1.92;;
59189;SDS011;50749;51.636;4.948;2022-12-24T09:52:50;8.10;;;1.98;;
59189;SDS011;50749;51.636;4.948;2022-12-24T10:00:21;7.75;;;1.92;;
59189;SDS011;50749;51.636;4.948;2022-12-24T10:02:50;10.30;;;3.20;;
59189;SDS011;50749;51.636;4.948;2022-12-24T10:05:17;7.10;;;2.03;;
59189;SDS011;50749;51.636;4.948;2022-12-24T10:08:02;8.98;;;1.98;;
59189;SDS011;50749;51.636;4.948;2022-12-24T10:10:37;7.55;;;1.77;;
59189;SDS011;50749;51.636;4.948;2022-12-24T10:13:35;10.00;;;1.73;;
59189;SDS011;50749;51.636;4.948;2022-12-24T10:29:14;9.20;;;2.15;;
59189;SDS011;50749;51.636;4.948;2022-12-24T10:31:57;8.32;;;1.90;;
59189;SDS011;50749;51.636;4.948;2022-12-24T10:37:36;12.82;;;2.45;;
59189;SDS011;50749;51.636;4.948;2022-12-24T10:40:03;14.10;;;2.17;;
59189;SDS011;50749;51.636;4.948;2022-12-24T10:42:39;12.15;;;2.15;;
59189;SDS011;50749;51.636;4.948;2022-12-24T10:45:12;10.00;;;1.80;;
59189;SDS011;50749;51.636;4.948;2022-12-24T10:47:41;10.38;;;2.10;;
59189;SDS011;50749;51.636;4.948;2022-12-24T10:52:45;12.35;;;2.42;;
59189;SDS011;50749;51.636;4.948;2022-12-24T10:57:44;7.18;;;1.60;;
59189;SDS011;50749;51.636;4.948;2022-12-24T11:00:17;8.75;;;2.13;;
59189;SDS011;50749;51.636;4.948;2022-12-24T11:02:48;7.07;;;1.80;;
59189;SDS011;50749;51.636;4.948;2022-12-24T11:05:30;7.38;;;1.75;;
59189;SDS011;50749;51.636;4.948;2022-12-24T11:07:58;9.77;;;2.08;;
59189;SDS011;50749;51.636;4.948;2022-12-24T11:10:26;9.38;;;2.35;;
59189;SDS011;50749;51.636;4.948;2022-12-24T11:12:51;8.85;;;2.28;;
59189;SDS011;50749;51.636;4.948;2022-12-24T11:15:18;9.68;;;1.92;;
59189;SDS011;50749;51.636;4.948;2022-12-24T11:17:51;6.75;;;1.75;;
59189;SDS011;50749;51.636;4.948;2022-12-24T11:20:20;8.32;;;1.80;;
59189;SDS011;50749;51.636;4.948;2022-12-24T11:22:51;5.28;;;2.38;;
59189;SDS011;50749;51.636;4.948;2022-12-24T11:25:32;4.60;;;1.40;;
59189;SDS011;50749;51.636;4.948;2022-12-24T11:28:10;8.43;;;2.22;;
59189;SDS011;50749;51.636;4.948;2022-12-24T11:30:37;6.00;;;1.75;;
59189;SDS011;50749;51.636;4.948;2022-12-24T11:35:30;7.07;;;2.03;;
59189;SDS011;50749;51.636;4.948;2022-12-24T11:40:34;7.15;;;2.08;;
59189;SDS011;50749;51.636;4.948;2022-12-24T11:43:02;7.70;;;1.70;;
59189;SDS011;50749;51.636;4.948;2022-12-24T11:45:30;8.48;;;1.77;;
59189;SDS011;50749;51.636;4.948;2022-12-24T11:47:58;9.20;;;2.03;;
59189;SDS011;50749;51.636;4.948;2022-12-24T11:50:29;4.53;;;1.50;;
59189;SDS011;50749;51.636;4.948;2022-12-24T11:53:03;5.97;;;2.03;;
59189;SDS011;50749;51.636;4.948;2022-12-24T11:55:44;3.72;;;1.30;;
59189;SDS011;50749;51.636;4.948;2022-12-24T12:00:49;10.80;;;2.03;;
59189;SDS011;50749;51.636;4.948;2022-12-24T12:03:28;9.52;;;1.92;;
59189;SDS011;50749;51.636;4.948;2022-12-24T12:05:57;7.38;;;1.55;;
59189;SDS011;50749;51.636;4.948;2022-12-24T12:08:25;8.77;;;1.80;;
59189;SDS011;50749;51.636;4.948;2022-12-24T12:10:53;10.85;;;2.35;;
59189;SDS011;50749;51.636;4.948;2022-12-24T12:13:28;8.23;;;1.67;;
59189;SDS011;50749;51.636;4.948;2022-12-24T12:16:05;8.70;;;1.90;;
59189;SDS011;50749;51.636;4.948;2022-12-24T12:18:38;8.52;;;1.90;;
59189;SDS011;50749;51.636;4.948;2022-12-24T12:23:46;6.75;;;1.60;;
59189;SDS011;50749;51.636;4.948;2022-12-24T12:26:23;5.40;;;1.70;;
59189;SDS011;50749;51.636;4.948;2022-12-24T12:28:58;6.90;;;1.60;;
59189;SDS011;50749;51.636;4.948;2022-12-24T12:31:31;28.60;;;12.50;;
59189;SDS011;50749;51.636;4.948;2022-12-24T12:36:39;251.70;;;115.55;;
59189;SDS011;50749;51.636;4.948;2022-12-24T12:39:09;276.85;;;125.45;;
59189;SDS011;50749;51.636;4.948;2022-12-24T12:44:15;212.45;;;96.35;;
59189;SDS011;50749;51.636;4.948;2022-12-24T12:54:39;120.13;;;55.17;;
59189;SDS011;50749;51.636;4.948;2022-12-24T12:57:22;133.15;;;59.95;;
59189;SDS011;50749;51.636;4.948;2022-12-24T13:02:34;141.32;;;61.97;;
59189;SDS011;50749;51.636;4.948;2022-12-24T13:21:41;110.63;;;50.78;;
59189;SDS011;50749;51.636;4.948;2022-12-24T13:24:15;109.13;;;50.38;;
59189;SDS011;50749;51.636;4.948;2022-12-24T13:27:04;118.32;;;54.65;;
59189;SDS011;50749;51.636;4.948;2022-12-24T13:29:54;114.90;;;51.90;;
59189;SDS011;50749;51.636;4.948;2022-12-24T13:34:49;102.70;;;47.80;;
59189;SDS011;50749;51.636;4.948;2022-12-24T13:47:59;84.90;;;40.85;;
59189;SDS011;50749;51.636;4.948;2022-12-24T13:50:48;85.35;;;39.75;;
59189;SDS011;50749;51.636;4.948;2022-12-24T13:53:20;84.30;;;38.28;;
59189;SDS011;50749;51.636;4.948;2022-12-24T13:56:06;83.50;;;37.80;;
59189;SDS011;50749;51.636;4.948;2022-12-24T13:58:40;81.03;;;35.97;;
59189;SDS011;50749;51.636;4.948;2022-12-24T14:03:48;66.97;;;31.50;;
59189;SDS011;50749;51.636;4.948;2022-12-24T14:06:22;70.57;;;33.38;;
59189;SDS011;50749;51.636;4.948;2022-12-24T14:08:49;61.83;;;30.17;;
59189;SDS011;50749;51.636;4.948;2022-12-24T14:11:20;64.70;;;30.65;;
59189;SDS011;50749;51.636;4.948;2022-12-24T14:16:20;70.43;;;33.67;;
59189;SDS011;50749;51.636;4.948;2022-12-24T14:21:32;59.45;;;28.80;;
59189;SDS011;50749;51.636;4.948;2022-12-24T14:24:03;60.33;;;27.52;;
59189;SDS011;50749;51.636;4.948;2022-12-24T14:26:33;59.25;;;26.52;;
59189;SDS011;50749;51.636;4.948;2022-12-24T14:31:48;49.80;;;21.77;;
59189;SDS011;50749;51.636;4.948;2022-12-24T14:34:21;48.95;;;22.27;;
59189;SDS011;50749;51.636;4.948;2022-12-24T14:36:47;40.45;;;20.10;;
59189;SDS011;50749;51.636;4.948;2022-12-24T14:39:38;49.08;;;23.33;;
59189;SDS011;50749;51.636;4.948;2022-12-24T14:45:27;46.67;;;21.30;;
59189;SDS011;50749;51.636;4.948;2022-12-24T14:47:54;44.85;;;20.60;;
59189;SDS011;50749;51.636;4.948;2022-12-24T14:50:35;33.40;;;15.88;;
59189;SDS011;50749;51.636;4.948;2022-12-24T14:55:48;32.57;;;14.57;;
59189;SDS011;50749;51.636;4.948;2022-12-24T14:58:25;36.55;;;16.63;;
59189;SDS011;50749;51.636;4.948;2022-12-24T15:00:58;35.92;;;16.13;;
59189;SDS011;50749;51.636;4.948;2022-12-24T15:03:27;30.40;;;13.93;;
59189;SDS011;50749;51.636;4.948;2022-12-24T15:06:03;25.90;;;12.10;;
59189;SDS011;50749;51.636;4.948;2022-12-24T15:08:32;30.70;;;13.88;;
59189;SDS011;50749;51.636;4.948;2022-12-24T15:11:03;31.13;;;13.93;;
59189;SDS011;50749;51.636;4.948;2022-12-24T15:13:33;31.45;;;12.63;;
59189;SDS011;50749;51.636;4.948;2022-12-24T15:16:03;23.52;;;11.63;;
59189;SDS011;50749;51.636;4.948;2022-12-24T15:18:32;26.08;;;12.70;;
59189;SDS011;50749;51.636;4.948;2022-12-24T15:21:02;26.90;;;12.57;;
59189;SDS011;50749;51.636;4.948;2022-12-24T15:23:32;29.27;;;12.48;;
59189;SDS011;50749;51.636;4.948;2022-12-24T15:26:06;24.83;;;11.73;;
59189;SDS011;50749;51.636;4.948;2022-12-24T15:28:47;28.83;;;12.93;;
59189;SDS011;50749;51.636;4.948;2022-12-24T15:31:15;28.02;;;12.07;;
59189;SDS011;50749;51.636;4.948;2022-12-24T15:33:43;27.05;;;11.77;;
59189;SDS011;50749;51.636;4.948;2022-12-24T15:36:10;25.33;;;12.45;;
59189;SDS011;50749;51.636;4.948;2022-12-24T15:38:38;25.83;;;11.75;;
59189;SDS011;50749;51.636;4.948;2022-12-24T15:41:14;25.60;;;10.60;;
59189;SDS011;50749;51.636;4.948;2022-12-24T15:43:48;24.25;;;11.07;;
59189;SDS011;50749;51.636;4.948;2022-12-24T15:46:16;22.13;;;10.93;;
59189;SDS011;50749;51.636;4.948;2022-12-24T15:48:47;24.45;;;10.40;;
59189;SDS011;50749;51.636;4.948;2022-12-24T15:51:19;27.27;;;10.25;;
59189;SDS011;50749;51.636;4.948;2022-12-24T15:54:03;27.38;;;10.23;;
59189;SDS011;50749;51.636;4.948;2022-12-24T15:56:41;28.45;;;9.82;;
59189;SDS011;50749;51.636;4.948;2022-12-24T16:01:44;19.75;;;10.15;;
59189;SDS011;50749;51.636;4.948;2022-12-24T16:04:13;24.70;;;10.05;;
59189;SDS011;50749;51.636;4.948;2022-12-24T16:06:54;23.48;;;9.55;;
59189;SDS011;50749;51.636;4.948;2022-12-24T16:09:35;19.65;;;9.95;;
59189;SDS011;50749;51.636;4.948;2022-12-24T16:12:12;17.02;;;8.77;;
59189;SDS011;50749;51.636;4.948;2022-12-24T16:14:49;21.27;;;9.13;;
59189;SDS011;50749;51.636;4.948;2022-12-24T16:17:19;19.67;;;9.15;;
59189;SDS011;50749;51.636;4.948;2022-12-24T16:19:48;19.55;;;9.00;;
59189;SDS011;50749;51.636;4.948;2022-12-24T16:22:17;18.52;;;8.80;;
59189;SDS011;50749;51.636;4.948;2022-12-24T16:24:58;21.10;;;9.00;;
59189;SDS011;50749;51.636;4.948;2022-12-24T16:27:24;23.70;;;9.38;;
59189;SDS011;50749;51.636;4.948;2022-12-24T16:29:50;19.15;;;8.38;;
59189;SDS011;50749;51.636;4.948;2022-12-24T16:32:32;18.70;;;8.38;;
59189;SDS011;50749;51.636;4.948;2022-12-24T16:35:00;18.52;;;8.88;;
59189;SDS011;50749;51.636;4.948;2022-12-24T16:37:27;17.15;;;8.57;;
59189;SDS011;50749;51.636;4.948;2022-12-24T16:39:53;18.58;;;7.68;;
59189;SDS011;50749;51.636;4.948;2022-12-24T16:42:18;23.92;;;7.97;;
59189;SDS011;50749;51.636;4.948;2022-12-24T16:45:03;31.73;;;8.70;;
59189;SDS011;50749;51.636;4.948;2022-12-24T16:47:30;20.77;;;8.93;;
59189;SDS011;50749;51.636;4.948;2022-12-24T16:50:00;15.57;;;7.93;;
59189;SDS011;50749;51.636;4.948;2022-12-24T16:52:28;17.65;;;7.68;;
59189;SDS011;50749;51.636;4.948;2022-12-24T16:54:58;18.60;;;8.15;;
59189;SDS011;50749;51.636;4.948;2022-12-24T16:57:25;15.43;;;7.40;;
59189;SDS011;50749;51.636;4.948;2022-12-24T16:59:51;18.73;;;7.38;;
59189;SDS011;50749;51.636;4.948;2022-12-24T17:02:20;20.42;;;7.40;;
59189;SDS011;50749;51.636;4.948;2022-12-24T17:04:47;19.40;;;8.07;;
59189;SDS011;50749;51.636;4.948;2022-12-24T17:07:16;20.27;;;7.57;;
59189;SDS011;50749;51.636;4.948;2022-12-24T17:09:44;14.45;;;6.40;;